sensor_id;sensor_type;location;lat;lon;timestamp;temperature;humidity
51383;DHT22;37475;43.358;1.248;2023-07-24T00:01:57;24.80;79.10
51383;DHT22;37475;43.358;1.248;2023-07-24T00:04:23;25.00;78.60
51383;DHT22;37475;43.358;1.248;2023-07-24T00:06:49;25.00;78.20
51383;DHT22;37475;43.358;1.248;2023-07-24T00:09:14;25.10;78.10
51383;DHT22;37475;43.358;1.248;2023-07-24T00:11:40;25.20;78.10
51383;DHT22;37475;43.358;1.248;2023-07-24T00:14:06;25.00;78.70
51383;DHT22;37475;43.358;1.248;2023-07-24T00:16:32;25.00;79.00
51383;DHT22;37475;43.358;1.248;2023-07-24T00:18:57;25.00;79.00
51383;DHT22;37475;43.358;1.248;2023-07-24T00:21:23;25.00;78.30
51383;DHT22;37475;43.358;1.248;2023-07-24T00:23:49;25.00;79.10
51383;DHT22;37475;43.358;1.248;2023-07-24T00:26:15;24.80;79.90
51383;DHT22;37475;43.358;1.248;2023-07-24T00:28:40;24.60;79.40
51383;DHT22;37475;43.358;1.248;2023-07-24T00:31:06;24.50;79.00
51383;DHT22;37475;43.358;1.248;2023-07-24T00:33:32;24.30;77.50
51383;DHT22;37475;43.358;1.248;2023-07-24T00:35:57;24.20;77.30
51383;DHT22;37475;43.358;1.248;2023-07-24T00:38:24;24.00;77.70
51383;DHT22;37475;43.358;1.248;2023-07-24T00:40:49;23.80;78.00
51383;DHT22;37475;43.358;1.248;2023-07-24T00:43:16;23.60;78.90
51383;DHT22;37475;43.358;1.248;2023-07-24T00:45:42;23.30;80.00
51383;DHT22;37475;43.358;1.248;2023-07-24T00:48:09;23.20;80.30
51383;DHT22;37475;43.358;1.248;2023-07-24T00:50:36;23.10;80.50
51383;DHT22;37475;43.358;1.248;2023-07-24T00:53:03;23.10;80.80
51383;DHT22;37475;43.358;1.248;2023-07-24T00:55:29;22.90;80.90
51383;DHT22;37475;43.358;1.248;2023-07-24T00:57:58;22.90;81.20
51383;DHT22;37475;43.358;1.248;2023-07-24T01:00:24;22.80;81.30
51383;DHT22;37475;43.358;1.248;2023-07-24T01:02:49;22.70;81.70
51383;DHT22;37475;43.358;1.248;2023-07-24T01:05:16;22.60;82.00
51383;DHT22;37475;43.358;1.248;2023-07-24T01:07:43;22.50;82.30
51383;DHT22;37475;43.358;1.248;2023-07-24T01:10:09;22.50;82.40
51383;DHT22;37475;43.358;1.248;2023-07-24T01:15:56;22.20;83.00
51383;DHT22;37475;43.358;1.248;2023-07-24T01:18:30;22.10;83.10
51383;DHT22;37475;43.358;1.248;2023-07-24T01:20:57;22.10;83.10
51383;DHT22;37475;43.358;1.248;2023-07-24T01:26:30;22.10;83.20
51383;DHT22;37475;43.358;1.248;2023-07-24T01:28:56;22.10;83.10
51383;DHT22;37475;43.358;1.248;2023-07-24T01:31:22;22.10;83.40
51383;DHT22;37475;43.358;1.248;2023-07-24T01:33:47;22.10;83.50
51383;DHT22;37475;43.358;1.248;2023-07-24T01:36:14;22.00;84.20
51383;DHT22;37475;43.358;1.248;2023-07-24T01:38:40;21.80;84.60
51383;DHT22;37475;43.358;1.248;2023-07-24T01:41:07;21.90;84.70
51383;DHT22;37475;43.358;1.248;2023-07-24T01:43:33;21.70;85.10
51383;DHT22;37475;43.358;1.248;2023-07-24T01:45:58;21.70;85.40
51383;DHT22;37475;43.358;1.248;2023-07-24T01:48:24;21.60;85.50
51383;DHT22;37475;43.358;1.248;2023-07-24T01:50:50;21.60;85.50
51383;DHT22;37475;43.358;1.248;2023-07-24T01:53:16;21.60;85.60
51383;DHT22;37475;43.358;1.248;2023-07-24T01:55:42;21.60;85.70
51383;DHT22;37475;43.358;1.248;2023-07-24T01:58:07;21.70;85.50
51383;DHT22;37475;43.358;1.248;2023-07-24T02:00:33;21.60;85.50
51383;DHT22;37475;43.358;1.248;2023-07-24T02:02:59;21.60;85.80
51383;DHT22;37475;43.358;1.248;2023-07-24T02:05:25;21.60;85.90
51383;DHT22;37475;43.358;1.248;2023-07-24T02:07:51;21.60;85.80
51383;DHT22;37475;43.358;1.248;2023-07-24T02:10:17;21.60;86.00
51383;DHT22;37475;43.358;1.248;2023-07-24T02:12:43;21.50;86.20
51383;DHT22;37475;43.358;1.248;2023-07-24T02:15:09;21.50;86.50
51383;DHT22;37475;43.358;1.248;2023-07-24T02:17:35;21.50;87.10
51383;DHT22;37475;43.358;1.248;2023-07-24T02:20:00;21.40;87.70
51383;DHT22;37475;43.358;1.248;2023-07-24T02:22:26;21.10;88.80
51383;DHT22;37475;43.358;1.248;2023-07-24T02:24:52;21.00;89.70
51383;DHT22;37475;43.358;1.248;2023-07-24T02:27:30;20.60;90.40
51383;DHT22;37475;43.358;1.248;2023-07-24T02:30:00;20.40;90.90
51383;DHT22;37475;43.358;1.248;2023-07-24T02:32:26;20.20;91.30
51383;DHT22;37475;43.358;1.248;2023-07-24T02:34:52;20.00;91.20
51383;DHT22;37475;43.358;1.248;2023-07-24T02:37:19;20.00;91.50
51383;DHT22;37475;43.358;1.248;2023-07-24T02:39:45;20.00;91.60
51383;DHT22;37475;43.358;1.248;2023-07-24T02:42:11;19.90;91.70
51383;DHT22;37475;43.358;1.248;2023-07-24T02:44:37;19.90;91.90
51383;DHT22;37475;43.358;1.248;2023-07-24T02:47:03;19.90;92.00
51383;DHT22;37475;43.358;1.248;2023-07-24T02:49:30;19.80;92.20
51383;DHT22;37475;43.358;1.248;2023-07-24T02:51:55;19.90;92.30
51383;DHT22;37475;43.358;1.248;2023-07-24T02:54:21;19.90;92.20
51383;DHT22;37475;43.358;1.248;2023-07-24T02:56:47;19.80;92.40
51383;DHT22;37475;43.358;1.248;2023-07-24T02:59:13;19.80;92.60
51383;DHT22;37475;43.358;1.248;2023-07-24T03:01:38;19.70;92.80
51383;DHT22;37475;43.358;1.248;2023-07-24T03:04:04;19.80;93.00
51383;DHT22;37475;43.358;1.248;2023-07-24T03:06:31;19.70;92.80
51383;DHT22;37475;43.358;1.248;2023-07-24T03:08:57;19.60;92.50
51383;DHT22;37475;43.358;1.248;2023-07-24T03:11:23;19.60;92.30
51383;DHT22;37475;43.358;1.248;2023-07-24T03:13:49;19.60;92.20
51383;DHT22;37475;43.358;1.248;2023-07-24T03:16:14;19.60;92.40
51383;DHT22;37475;43.358;1.248;2023-07-24T03:18:42;19.60;92.50
51383;DHT22;37475;43.358;1.248;2023-07-24T03:21:08;19.50;92.60
51383;DHT22;37475;43.358;1.248;2023-07-24T03:23:34;19.50;92.60
51383;DHT22;37475;43.358;1.248;2023-07-24T03:26:00;19.40;92.90
51383;DHT22;37475;43.358;1.248;2023-07-24T03:28:26;19.40;92.60
51383;DHT22;37475;43.358;1.248;2023-07-24T03:30:52;19.40;92.40
51383;DHT22;37475;43.358;1.248;2023-07-24T03:33:18;19.40;92.20
51383;DHT22;37475;43.358;1.248;2023-07-24T03:35:45;19.40;91.40
51383;DHT22;37475;43.358;1.248;2023-07-24T03:38:11;19.50;91.10
51383;DHT22;37475;43.358;1.248;2023-07-24T03:40:36;19.50;90.90
51383;DHT22;37475;43.358;1.248;2023-07-24T03:43:02;19.50;90.40
51383;DHT22;37475;43.358;1.248;2023-07-24T03:45:28;19.50;90.00
51383;DHT22;37475;43.358;1.248;2023-07-24T03:47:54;19.60;89.90
51383;DHT22;37475;43.358;1.248;2023-07-24T03:50:19;19.60;89.80
51383;DHT22;37475;43.358;1.248;2023-07-24T03:52:45;19.60;89.50
51383;DHT22;37475;43.358;1.248;2023-07-24T03:55:11;19.60;89.80
51383;DHT22;37475;43.358;1.248;2023-07-24T03:57:37;19.60;89.60
51383;DHT22;37475;43.358;1.248;2023-07-24T04:00:03;19.60;89.70
51383;DHT22;37475;43.358;1.248;2023-07-24T04:02:29;19.60;89.10
51383;DHT22;37475;43.358;1.248;2023-07-24T04:04:55;19.60;89.10
51383;DHT22;37475;43.358;1.248;2023-07-24T04:07:21;19.60;89.20
51383;DHT22;37475;43.358;1.248;2023-07-24T04:09:47;19.60;89.00
51383;DHT22;37475;43.358;1.248;2023-07-24T04:12:12;19.70;89.10
51383;DHT22;37475;43.358;1.248;2023-07-24T04:14:38;19.80;89.20
51383;DHT22;37475;43.358;1.248;2023-07-24T04:17:04;19.80;89.20
51383;DHT22;37475;43.358;1.248;2023-07-24T04:19:30;19.70;89.30
51383;DHT22;37475;43.358;1.248;2023-07-24T04:21:56;19.60;89.20
51383;DHT22;37475;43.358;1.248;2023-07-24T04:24:21;19.60;89.10
51383;DHT22;37475;43.358;1.248;2023-07-24T04:26:47;19.70;89.20
51383;DHT22;37475;43.358;1.248;2023-07-24T04:29:13;19.70;89.00
51383;DHT22;37475;43.358;1.248;2023-07-24T04:31:39;19.70;89.00
51383;DHT22;37475;43.358;1.248;2023-07-24T04:34:05;19.80;88.90
51383;DHT22;37475;43.358;1.248;2023-07-24T04:36:31;19.80;88.90
51383;DHT22;37475;43.358;1.248;2023-07-24T04:38:56;19.70;88.90
51383;DHT22;37475;43.358;1.248;2023-07-24T04:41:22;19.70;89.30
51383;DHT22;37475;43.358;1.248;2023-07-24T04:43:48;19.60;89.50
51383;DHT22;37475;43.358;1.248;2023-07-24T04:46:14;19.60;89.70
51383;DHT22;37475;43.358;1.248;2023-07-24T04:48:40;19.70;89.70
51383;DHT22;37475;43.358;1.248;2023-07-24T04:51:05;19.70;89.60
51383;DHT22;37475;43.358;1.248;2023-07-24T04:53:31;19.60;89.60
51383;DHT22;37475;43.358;1.248;2023-07-24T04:55:57;19.60;89.60
51383;DHT22;37475;43.358;1.248;2023-07-24T04:58:23;19.60;89.60
51383;DHT22;37475;43.358;1.248;2023-07-24T05:00:48;19.50;89.90
51383;DHT22;37475;43.358;1.248;2023-07-24T05:03:14;19.60;89.80
51383;DHT22;37475;43.358;1.248;2023-07-24T05:05:42;19.60;89.50
51383;DHT22;37475;43.358;1.248;2023-07-24T05:08:08;19.60;89.50
51383;DHT22;37475;43.358;1.248;2023-07-24T05:10:37;19.60;89.70
51383;DHT22;37475;43.358;1.248;2023-07-24T05:13:03;19.50;89.70
51383;DHT22;37475;43.358;1.248;2023-07-24T05:15:29;19.60;89.60
51383;DHT22;37475;43.358;1.248;2023-07-24T05:17:54;19.50;89.50
51383;DHT22;37475;43.358;1.248;2023-07-24T05:20:20;19.60;89.50
51383;DHT22;37475;43.358;1.248;2023-07-24T05:22:46;19.50;89.50
51383;DHT22;37475;43.358;1.248;2023-07-24T05:25:12;19.60;89.70
51383;DHT22;37475;43.358;1.248;2023-07-24T05:27:38;19.60;89.50
51383;DHT22;37475;43.358;1.248;2023-07-24T05:30:05;19.60;89.30
51383;DHT22;37475;43.358;1.248;2023-07-24T05:32:31;19.60;89.20
51383;DHT22;37475;43.358;1.248;2023-07-24T05:34:57;19.60;89.20
51383;DHT22;37475;43.358;1.248;2023-07-24T05:37:23;19.60;89.00
51383;DHT22;37475;43.358;1.248;2023-07-24T05:39:48;19.60;89.10
51383;DHT22;37475;43.358;1.248;2023-07-24T05:42:14;19.70;88.80
51383;DHT22;37475;43.358;1.248;2023-07-24T05:44:40;19.70;88.80
51383;DHT22;37475;43.358;1.248;2023-07-24T05:47:06;19.60;88.70
51383;DHT22;37475;43.358;1.248;2023-07-24T05:49:31;19.60;88.30
51383;DHT22;37475;43.358;1.248;2023-07-24T05:51:57;19.60;88.70
51383;DHT22;37475;43.358;1.248;2023-07-24T05:54:23;19.60;88.80
51383;DHT22;37475;43.358;1.248;2023-07-24T05:56:49;19.80;88.70
51383;DHT22;37475;43.358;1.248;2023-07-24T05:59:14;19.80;88.80
51383;DHT22;37475;43.358;1.248;2023-07-24T06:01:40;19.90;88.40
51383;DHT22;37475;43.358;1.248;2023-07-24T06:04:06;19.70;88.40
51383;DHT22;37475;43.358;1.248;2023-07-24T06:06:33;19.70;88.70
51383;DHT22;37475;43.358;1.248;2023-07-24T06:08:59;19.70;88.40
51383;DHT22;37475;43.358;1.248;2023-07-24T06:11:24;19.80;88.20
51383;DHT22;37475;43.358;1.248;2023-07-24T06:13:52;19.80;88.20
51383;DHT22;37475;43.358;1.248;2023-07-24T06:16:18;19.80;88.00
51383;DHT22;37475;43.358;1.248;2023-07-24T06:18:44;19.80;87.90
51383;DHT22;37475;43.358;1.248;2023-07-24T06:21:10;19.70;88.00
51383;DHT22;37475;43.358;1.248;2023-07-24T06:23:36;19.80;87.90
51383;DHT22;37475;43.358;1.248;2023-07-24T06:26:02;19.80;88.20
51383;DHT22;37475;43.358;1.248;2023-07-24T06:28:27;19.70;87.80
51383;DHT22;37475;43.358;1.248;2023-07-24T06:30:54;19.80;88.10
51383;DHT22;37475;43.358;1.248;2023-07-24T06:33:20;19.90;88.20
51383;DHT22;37475;43.358;1.248;2023-07-24T06:35:48;19.90;87.40
51383;DHT22;37475;43.358;1.248;2023-07-24T06:38:15;20.00;87.70
51383;DHT22;37475;43.358;1.248;2023-07-24T06:40:40;20.00;87.60
51383;DHT22;37475;43.358;1.248;2023-07-24T06:43:06;20.00;87.40
51383;DHT22;37475;43.358;1.248;2023-07-24T06:45:32;20.10;87.20
51383;DHT22;37475;43.358;1.248;2023-07-24T06:47:58;20.10;87.20
51383;DHT22;37475;43.358;1.248;2023-07-24T06:50:23;20.00;87.30
51383;DHT22;37475;43.358;1.248;2023-07-24T06:52:49;20.10;87.30
51383;DHT22;37475;43.358;1.248;2023-07-24T06:55:17;20.10;87.30
51383;DHT22;37475;43.358;1.248;2023-07-24T06:57:43;20.00;87.00
51383;DHT22;37475;43.358;1.248;2023-07-24T07:00:09;20.10;87.50
51383;DHT22;37475;43.358;1.248;2023-07-24T07:02:37;20.10;87.00
51383;DHT22;37475;43.358;1.248;2023-07-24T07:05:04;20.20;87.10
51383;DHT22;37475;43.358;1.248;2023-07-24T07:07:30;20.30;87.00
51383;DHT22;37475;43.358;1.248;2023-07-24T07:09:56;20.30;86.90
51383;DHT22;37475;43.358;1.248;2023-07-24T07:12:22;20.30;86.90
51383;DHT22;37475;43.358;1.248;2023-07-24T07:14:48;20.30;86.40
51383;DHT22;37475;43.358;1.248;2023-07-24T07:17:14;20.30;86.70
51383;DHT22;37475;43.358;1.248;2023-07-24T07:19:40;20.40;86.20
51383;DHT22;37475;43.358;1.248;2023-07-24T07:22:05;20.50;86.30
51383;DHT22;37475;43.358;1.248;2023-07-24T07:24:31;20.60;85.70
51383;DHT22;37475;43.358;1.248;2023-07-24T07:26:57;20.60;86.10
51383;DHT22;37475;43.358;1.248;2023-07-24T07:29:23;20.80;85.50
51383;DHT22;37475;43.358;1.248;2023-07-24T07:31:48;20.70;85.30
51383;DHT22;37475;43.358;1.248;2023-07-24T07:34:14;20.60;85.40
51383;DHT22;37475;43.358;1.248;2023-07-24T07:36:40;20.80;85.50
51383;DHT22;37475;43.358;1.248;2023-07-24T07:39:06;20.80;84.90
51383;DHT22;37475;43.358;1.248;2023-07-24T07:41:31;20.70;84.70
51383;DHT22;37475;43.358;1.248;2023-07-24T07:43:57;20.80;84.70
51383;DHT22;37475;43.358;1.248;2023-07-24T07:46:23;21.10;84.60
51383;DHT22;37475;43.358;1.248;2023-07-24T07:48:49;21.20;83.60
51383;DHT22;37475;43.358;1.248;2023-07-24T07:51:15;21.30;83.00
51383;DHT22;37475;43.358;1.248;2023-07-24T07:53:40;21.40;82.10
51383;DHT22;37475;43.358;1.248;2023-07-24T07:56:06;21.50;81.20
51383;DHT22;37475;43.358;1.248;2023-07-24T07:58:33;21.60;81.60
51383;DHT22;37475;43.358;1.248;2023-07-24T08:01:03;21.60;80.70
51383;DHT22;37475;43.358;1.248;2023-07-24T08:03:30;21.70;80.90
51383;DHT22;37475;43.358;1.248;2023-07-24T08:05:59;21.70;79.90
51383;DHT22;37475;43.358;1.248;2023-07-24T08:08:25;21.60;80.10
51383;DHT22;37475;43.358;1.248;2023-07-24T08:10:51;21.80;80.00
51383;DHT22;37475;43.358;1.248;2023-07-24T08:13:17;21.80;79.50
51383;DHT22;37475;43.358;1.248;2023-07-24T08:15:43;21.90;80.10
51383;DHT22;37475;43.358;1.248;2023-07-24T08:18:09;21.90;79.00
51383;DHT22;37475;43.358;1.248;2023-07-24T08:20:36;22.10;78.80
51383;DHT22;37475;43.358;1.248;2023-07-24T08:23:02;22.40;77.90
51383;DHT22;37475;43.358;1.248;2023-07-24T08:25:28;22.40;77.40
51383;DHT22;37475;43.358;1.248;2023-07-24T08:27:54;22.30;77.70
51383;DHT22;37475;43.358;1.248;2023-07-24T08:30:20;22.20;78.30
51383;DHT22;37475;43.358;1.248;2023-07-24T08:32:46;22.40;78.20
51383;DHT22;37475;43.358;1.248;2023-07-24T08:35:12;22.30;77.90
51383;DHT22;37475;43.358;1.248;2023-07-24T08:37:38;22.50;78.30
51383;DHT22;37475;43.358;1.248;2023-07-24T08:40:04;22.60;77.00
51383;DHT22;37475;43.358;1.248;2023-07-24T08:42:31;22.50;77.10
51383;DHT22;37475;43.358;1.248;2023-07-24T08:44:58;22.50;77.20
51383;DHT22;37475;43.358;1.248;2023-07-24T08:47:24;22.40;76.70
51383;DHT22;37475;43.358;1.248;2023-07-24T08:49:50;22.40;76.60
51383;DHT22;37475;43.358;1.248;2023-07-24T08:52:17;22.30;76.90
51383;DHT22;37475;43.358;1.248;2023-07-24T08:54:44;22.20;77.40
51383;DHT22;37475;43.358;1.248;2023-07-24T08:57:11;22.20;77.80
51383;DHT22;37475;43.358;1.248;2023-07-24T08:59:37;22.40;78.40
51383;DHT22;37475;43.358;1.248;2023-07-24T09:02:03;22.60;77.00
51383;DHT22;37475;43.358;1.248;2023-07-24T09:04:30;22.60;76.30
51383;DHT22;37475;43.358;1.248;2023-07-24T09:06:57;22.70;76.80
51383;DHT22;37475;43.358;1.248;2023-07-24T09:09:29;22.50;76.80
51383;DHT22;37475;43.358;1.248;2023-07-24T09:11:56;22.30;77.70
51383;DHT22;37475;43.358;1.248;2023-07-24T09:14:26;22.20;78.30
51383;DHT22;37475;43.358;1.248;2023-07-24T09:17:10;22.10;77.60
51383;DHT22;37475;43.358;1.248;2023-07-24T09:19:37;22.20;77.90
51383;DHT22;37475;43.358;1.248;2023-07-24T09:22:16;22.20;77.80
51383;DHT22;37475;43.358;1.248;2023-07-24T09:24:52;22.10;77.60
51383;DHT22;37475;43.358;1.248;2023-07-24T09:27:19;22.20;77.60
51383;DHT22;37475;43.358;1.248;2023-07-24T09:29:46;22.40;77.70
51383;DHT22;37475;43.358;1.248;2023-07-24T09:32:20;22.30;77.60
51383;DHT22;37475;43.358;1.248;2023-07-24T09:34:50;22.30;78.20
51383;DHT22;37475;43.358;1.248;2023-07-24T09:37:27;22.30;77.70
51383;DHT22;37475;43.358;1.248;2023-07-24T09:39:55;22.30;77.80
51383;DHT22;37475;43.358;1.248;2023-07-24T09:42:29;22.30;77.70
51383;DHT22;37475;43.358;1.248;2023-07-24T09:44:55;22.50;77.30
51383;DHT22;37475;43.358;1.248;2023-07-24T09:47:21;22.60;76.70
51383;DHT22;37475;43.358;1.248;2023-07-24T09:49:47;22.70;76.60
51383;DHT22;37475;43.358;1.248;2023-07-24T09:52:14;22.60;76.30
51383;DHT22;37475;43.358;1.248;2023-07-24T09:55:04;22.50;75.90
51383;DHT22;37475;43.358;1.248;2023-07-24T09:57:32;22.80;75.70
51383;DHT22;37475;43.358;1.248;2023-07-24T09:59:58;23.00;74.40
51383;DHT22;37475;43.358;1.248;2023-07-24T10:02:25;22.90;75.90
51383;DHT22;37475;43.358;1.248;2023-07-24T10:04:52;22.60;75.80
51383;DHT22;37475;43.358;1.248;2023-07-24T10:07:18;22.50;76.80
51383;DHT22;37475;43.358;1.248;2023-07-24T10:09:47;22.60;76.40
51383;DHT22;37475;43.358;1.248;2023-07-24T10:12:15;22.80;75.50
51383;DHT22;37475;43.358;1.248;2023-07-24T10:14:46;22.80;74.70
51383;DHT22;37475;43.358;1.248;2023-07-24T10:17:12;22.80;75.10
51383;DHT22;37475;43.358;1.248;2023-07-24T10:19:42;22.90;74.80
51383;DHT22;37475;43.358;1.248;2023-07-24T10:22:18;23.20;74.80
51383;DHT22;37475;43.358;1.248;2023-07-24T10:24:46;23.60;73.10
51383;DHT22;37475;43.358;1.248;2023-07-24T10:27:12;23.90;72.90
51383;DHT22;37475;43.358;1.248;2023-07-24T10:29:38;23.70;72.30
51383;DHT22;37475;43.358;1.248;2023-07-24T10:32:26;23.80;72.40
51383;DHT22;37475;43.358;1.248;2023-07-24T10:35:07;23.80;71.70
51383;DHT22;37475;43.358;1.248;2023-07-24T10:37:37;23.90;71.20
51383;DHT22;37475;43.358;1.248;2023-07-24T10:40:04;23.70;71.60
51383;DHT22;37475;43.358;1.248;2023-07-24T10:42:31;23.50;72.00
51383;DHT22;37475;43.358;1.248;2023-07-24T10:45:06;23.20;73.30
51383;DHT22;37475;43.358;1.248;2023-07-24T10:47:33;23.20;73.50
51383;DHT22;37475;43.358;1.248;2023-07-24T10:49:59;23.40;73.40
51383;DHT22;37475;43.358;1.248;2023-07-24T10:52:33;23.70;72.10
51383;DHT22;37475;43.358;1.248;2023-07-24T10:55:05;23.60;71.10
51383;DHT22;37475;43.358;1.248;2023-07-24T10:57:32;23.40;72.10
51383;DHT22;37475;43.358;1.248;2023-07-24T10:59:59;23.60;71.30
51383;DHT22;37475;43.358;1.248;2023-07-24T11:02:25;23.80;71.70
51383;DHT22;37475;43.358;1.248;2023-07-24T11:04:50;24.00;70.60
51383;DHT22;37475;43.358;1.248;2023-07-24T11:07:16;24.10;69.50
51383;DHT22;37475;43.358;1.248;2023-07-24T11:09:42;24.10;69.70
51383;DHT22;37475;43.358;1.248;2023-07-24T11:12:16;24.20;69.60
51383;DHT22;37475;43.358;1.248;2023-07-24T11:14:52;24.30;69.60
51383;DHT22;37475;43.358;1.248;2023-07-24T11:17:21;24.20;70.10
51383;DHT22;37475;43.358;1.248;2023-07-24T11:19:47;24.00;70.50
51383;DHT22;37475;43.358;1.248;2023-07-24T11:22:14;23.80;71.10
51383;DHT22;37475;43.358;1.248;2023-07-24T11:24:47;23.70;71.90
51383;DHT22;37475;43.358;1.248;2023-07-24T11:27:14;23.80;71.60
51383;DHT22;37475;43.358;1.248;2023-07-24T11:29:47;24.00;71.30
51383;DHT22;37475;43.358;1.248;2023-07-24T11:32:18;24.10;70.80
51383;DHT22;37475;43.358;1.248;2023-07-24T11:34:46;24.10;71.30
51383;DHT22;37475;43.358;1.248;2023-07-24T11:37:13;24.00;72.10
51383;DHT22;37475;43.358;1.248;2023-07-24T11:39:39;24.00;71.50
51383;DHT22;37475;43.358;1.248;2023-07-24T11:42:05;24.30;71.00
51383;DHT22;37475;43.358;1.248;2023-07-24T11:44:31;24.50;70.60
51383;DHT22;37475;43.358;1.248;2023-07-24T11:47:05;24.50;69.20
51383;DHT22;37475;43.358;1.248;2023-07-24T11:49:32;24.60;68.50
51383;DHT22;37475;43.358;1.248;2023-07-24T11:52:04;24.60;68.60
51383;DHT22;37475;43.358;1.248;2023-07-24T11:54:30;24.90;67.80
51383;DHT22;37475;43.358;1.248;2023-07-24T11:56:56;24.80;67.30
51383;DHT22;37475;43.358;1.248;2023-07-24T11:59:22;24.40;68.80
51383;DHT22;37475;43.358;1.248;2023-07-24T12:01:49;24.50;68.80
51383;DHT22;37475;43.358;1.248;2023-07-24T12:04:15;24.90;68.40
51383;DHT22;37475;43.358;1.248;2023-07-24T12:06:41;25.50;66.50
51383;DHT22;37475;43.358;1.248;2023-07-24T12:09:07;25.40;65.80
51383;DHT22;37475;43.358;1.248;2023-07-24T12:11:33;25.50;65.30
51383;DHT22;37475;43.358;1.248;2023-07-24T12:14:06;25.60;65.50
51383;DHT22;37475;43.358;1.248;2023-07-24T12:16:34;26.00;63.80
51383;DHT22;37475;43.358;1.248;2023-07-24T12:19:00;26.20;63.50
51383;DHT22;37475;43.358;1.248;2023-07-24T12:21:26;26.00;63.90
51383;DHT22;37475;43.358;1.248;2023-07-24T12:23:51;25.60;65.10
51383;DHT22;37475;43.358;1.248;2023-07-24T12:26:17;25.50;64.40
51383;DHT22;37475;43.358;1.248;2023-07-24T12:28:43;25.40;64.40
51383;DHT22;37475;43.358;1.248;2023-07-24T12:31:09;25.60;64.30
51383;DHT22;37475;43.358;1.248;2023-07-24T12:33:34;25.30;65.50
51383;DHT22;37475;43.358;1.248;2023-07-24T12:36:00;25.20;64.90
51383;DHT22;37475;43.358;1.248;2023-07-24T12:38:27;24.80;65.70
51383;DHT22;37475;43.358;1.248;2023-07-24T12:40:53;25.00;65.50
51383;DHT22;37475;43.358;1.248;2023-07-24T12:43:19;25.00;64.80
51383;DHT22;37475;43.358;1.248;2023-07-24T12:45:44;24.80;65.20
51383;DHT22;37475;43.358;1.248;2023-07-24T12:48:10;24.90;65.60
51383;DHT22;37475;43.358;1.248;2023-07-24T12:50:36;24.90;65.80
51383;DHT22;37475;43.358;1.248;2023-07-24T12:53:02;24.60;67.10
51383;DHT22;37475;43.358;1.248;2023-07-24T12:55:28;24.60;68.30
51383;DHT22;37475;43.358;1.248;2023-07-24T12:57:55;24.50;67.70
51383;DHT22;37475;43.358;1.248;2023-07-24T13:00:21;24.30;67.90
51383;DHT22;37475;43.358;1.248;2023-07-24T13:02:49;24.40;68.30
51383;DHT22;37475;43.358;1.248;2023-07-24T13:05:14;24.40;68.10
51383;DHT22;37475;43.358;1.248;2023-07-24T13:07:40;24.50;69.50
51383;DHT22;37475;43.358;1.248;2023-07-24T13:10:06;24.60;68.20
51383;DHT22;37475;43.358;1.248;2023-07-24T13:12:33;24.60;67.10
51383;DHT22;37475;43.358;1.248;2023-07-24T13:14:58;24.90;68.30
51383;DHT22;37475;43.358;1.248;2023-07-24T13:17:24;24.60;67.50
51383;DHT22;37475;43.358;1.248;2023-07-24T13:19:50;24.50;67.60
51383;DHT22;37475;43.358;1.248;2023-07-24T13:22:16;24.80;65.90
51383;DHT22;37475;43.358;1.248;2023-07-24T13:24:42;24.80;64.90
51383;DHT22;37475;43.358;1.248;2023-07-24T13:27:07;24.80;66.00
51383;DHT22;37475;43.358;1.248;2023-07-24T13:29:33;24.50;66.60
51383;DHT22;37475;43.358;1.248;2023-07-24T13:31:59;24.30;67.10
51383;DHT22;37475;43.358;1.248;2023-07-24T13:34:25;24.50;67.50
51383;DHT22;37475;43.358;1.248;2023-07-24T13:36:50;24.70;67.40
51383;DHT22;37475;43.358;1.248;2023-07-24T13:39:16;24.90;67.80
51383;DHT22;37475;43.358;1.248;2023-07-24T13:41:42;24.80;67.40
51383;DHT22;37475;43.358;1.248;2023-07-24T13:44:09;24.70;67.50
51383;DHT22;37475;43.358;1.248;2023-07-24T13:46:35;24.50;69.00
51383;DHT22;37475;43.358;1.248;2023-07-24T13:49:01;24.20;69.90
51383;DHT22;37475;43.358;1.248;2023-07-24T13:51:26;24.00;71.10
51383;DHT22;37475;43.358;1.248;2023-07-24T13:53:52;23.70;72.30
51383;DHT22;37475;43.358;1.248;2023-07-24T13:56:19;23.60;72.80
51383;DHT22;37475;43.358;1.248;2023-07-24T13:58:47;23.50;73.10
51383;DHT22;37475;43.358;1.248;2023-07-24T14:01:13;23.30;73.30
51383;DHT22;37475;43.358;1.248;2023-07-24T14:03:39;23.00;74.30
51383;DHT22;37475;43.358;1.248;2023-07-24T14:06:05;23.10;74.80
51383;DHT22;37475;43.358;1.248;2023-07-24T14:08:30;23.00;75.30
51383;DHT22;37475;43.358;1.248;2023-07-24T14:10:56;23.00;75.70
51383;DHT22;37475;43.358;1.248;2023-07-24T14:13:22;23.00;75.50
51383;DHT22;37475;43.358;1.248;2023-07-24T14:15:48;22.80;76.10
51383;DHT22;37475;43.358;1.248;2023-07-24T14:18:13;22.60;76.70
51383;DHT22;37475;43.358;1.248;2023-07-24T14:20:39;22.60;77.10
51383;DHT22;37475;43.358;1.248;2023-07-24T14:23:06;22.60;76.90
51383;DHT22;37475;43.358;1.248;2023-07-24T14:25:33;22.40;77.80
51383;DHT22;37475;43.358;1.248;2023-07-24T14:27:59;22.50;77.70
51383;DHT22;37475;43.358;1.248;2023-07-24T14:30:25;22.50;77.20
51383;DHT22;37475;43.358;1.248;2023-07-24T14:32:50;22.30;77.80
51383;DHT22;37475;43.358;1.248;2023-07-24T14:35:16;22.10;78.70
51383;DHT22;37475;43.358;1.248;2023-07-24T14:37:42;22.00;79.60
51383;DHT22;37475;43.358;1.248;2023-07-24T14:40:10;21.70;80.30
51383;DHT22;37475;43.358;1.248;2023-07-24T14:42:37;21.80;80.20
51383;DHT22;37475;43.358;1.248;2023-07-24T14:45:03;21.80;80.20
51383;DHT22;37475;43.358;1.248;2023-07-24T14:47:29;21.80;80.30
51383;DHT22;37475;43.358;1.248;2023-07-24T14:49:57;21.80;81.00
51383;DHT22;37475;43.358;1.248;2023-07-24T14:52:23;21.90;81.00
51383;DHT22;37475;43.358;1.248;2023-07-24T14:54:49;21.90;79.20
51383;DHT22;37475;43.358;1.248;2023-07-24T14:57:15;22.00;79.40
51383;DHT22;37475;43.358;1.248;2023-07-24T14:59:41;21.80;78.60
51383;DHT22;37475;43.358;1.248;2023-07-24T15:02:07;21.90;78.90
51383;DHT22;37475;43.358;1.248;2023-07-24T15:04:33;21.80;78.80
51383;DHT22;37475;43.358;1.248;2023-07-24T15:06:59;21.70;78.00
51383;DHT22;37475;43.358;1.248;2023-07-24T15:09:25;21.70;77.90
51383;DHT22;37475;43.358;1.248;2023-07-24T15:11:50;21.80;77.80
51383;DHT22;37475;43.358;1.248;2023-07-24T15:14:16;21.80;77.80
51383;DHT22;37475;43.358;1.248;2023-07-24T15:16:42;21.80;77.50
51383;DHT22;37475;43.358;1.248;2023-07-24T15:19:08;21.70;78.10
51383;DHT22;37475;43.358;1.248;2023-07-24T15:21:33;21.70;77.70
51383;DHT22;37475;43.358;1.248;2023-07-24T15:23:59;21.70;78.00
51383;DHT22;37475;43.358;1.248;2023-07-24T15:26:25;21.70;78.30
51383;DHT22;37475;43.358;1.248;2023-07-24T15:28:50;21.70;78.60
51383;DHT22;37475;43.358;1.248;2023-07-24T15:31:16;21.80;78.90
51383;DHT22;37475;43.358;1.248;2023-07-24T15:33:42;21.60;79.40